Time;durP1;ratioP1;P1;durP2;ratioP2;P2;SDS_P1;SDS_P2;PMS_P1;PMS_P2;Temp;Humidity;BMP_temperature;BMP_pressure;BME280_temperature;BME280_humidity;BME280_pressure;Samples;Min_cycle;Max_cycle;Signal;HPM_P1;HPM_P2
2022/08/06 00:01:18;;;;;;;;;;;;;;;;;;2209715;59;1488;-67
2022/08/06 00:03:51;;;;;;;;;;;;;;;;;;2210004;59;1250;-66
2022/08/06 00:06:24;;;;;;;;;;;;;;;;;;2209399;59;1513;-66
2022/08/06 00:08:57;;;;;;;;;;;;;;;;;;2209057;67;1219;-67
2022/08/06 00:11:31;;;;;;;;;;;;;;;;;;2209385;59;1996;-65
2022/08/06 00:14:07;;;;;;;;;;;;;;;;;;2208212;59;1276;-67
2022/08/06 00:16:40;;;;;;;;;;;;;;;;;;2209747;59;1293;-66
2022/08/06 00:19:13;;;;;;;;;;;;;;;;;;2209461;62;1117;-66
2022/08/06 00:21:46;;;;;;;;;;;;;;;;;;2208732;67;1290;-65
2022/08/06 00:24:19;;;;;;;;;;;;;;;;;;2208623;67;1223;-65
2022/08/06 00:26:53;;;;;;;;;;;;;;;;;;2210024;67;1284;-65
2022/08/06 00:29:28;;;;;;;;;;;;;;;;;;2208942;67;1240;-67
2022/08/06 00:32:02;;;;;;;;;;;;;;;;;;2209665;67;1945;-66
2022/08/06 00:34:35;;;;;;;;;;;;;;;;;;2208183;67;1081;-67
2022/08/06 00:37:08;;;;;;;;;;;;;;;;;;2209553;59;1539;-66
2022/08/06 00:39:41;;;;;;;;;;;;;;;;;;2209029;67;1190;-65
2022/08/06 00:42:14;;;;;;;;;;;;;;;;;;2208239;67;1212;-67
2022/08/06 00:44:50;;;;;;;;;;;;;;;;;;2209846;67;1235;-67
2022/08/06 00:47:23;;;;;;;;;;;;;;;;;;2212310;67;1222;-66
2022/08/06 00:49:56;;;;;;;;;;;;;;;;;;2210217;67;1977;-66
2022/08/06 00:52:29;;;;;;;;;;;;;;;;;;2209348;59;1201;-65
2022/08/06 00:55:03;;;;;;;;;;;;;;;;;;2208521;67;1242;-67
2022/08/06 00:57:36;;;;;;;;;;;;;;;;;;2209103;59;1140;-65
2022/08/06 01:00:12;;;;;;;;;;;;;;;;;;2209486;67;1206;-67
2022/08/06 01:02:46;;;;;;;;;;;;;;;;;;2209515;59;1492;-67
2022/08/06 01:05:19;;;;;;;;;;;;;;;;;;2209339;59;1481;-66
2022/08/06 01:07:53;;;;;;;;;;;;;;;;;;2209271;67;1164;-65
2022/08/06 01:10:27;;;;;;;;;;;;;;;;;;2209100;67;1979;-66
2022/08/06 01:13:00;;;;;;;;;;;;;;;;;;2209355;59;1261;-66
2022/08/06 01:15:36;;;;;;;;;;;;;;;;;;2208945;67;1330;-67
2022/08/06 01:18:11;;;;;;;;;;;;;;;;;;2208993;59;1126;-66
2022/08/06 01:20:49;;;;;;;;;;;;;;;;;;2208802;67;1185;-66
2022/08/06 01:23:37;;;;;;;;;;;;;;;;;;2208831;67;1271;-67
2022/08/06 01:26:25;;;;;;;;;;;;;;;;;;2208883;67;1200;-65
2022/08/06 01:29:03;;;;;;;;;;;;;;;;;;2208682;67;1220;-67
2022/08/06 01:31:39;;;;;;;;;;;;;;;;;;2208426;60;1992;-67
2022/08/06 01:34:16;;;;;;;;;;;;;;;;;;2209185;67;1174;-67
2022/08/06 01:36:52;;;;;;;;;;;;;;;;;;2208338;67;1405;-67
2022/08/06 01:39:28;;;;;;;;;;;;;;;;;;2208816;59;1800;-67
2022/08/06 01:42:02;;;;;;;;;;;;;;;;;;2208614;59;1303;-66
2022/08/06 01:44:41;;;;;;;;;;;;;;;;;;2208568;67;1056;-67
2022/08/06 01:47:18;;;;;;;;;;;;;;;;;;2208110;67;1106;-65
2022/08/06 01:49:52;;;;;;;;;;;;;;;;;;2207754;67;1295;-67
2022/08/06 01:52:26;;;;;;;;;;;;;;;;;;2208587;67;1937;-68
2022/08/06 01:55:00;;;;;;;;;;;;;;;;;;2207512;67;1282;-67
2022/08/06 01:57:34;;;;;;;;;;;;;;;;;;2208597;59;1207;-67
2022/08/06 02:00:11;;;;;;;;;;;;;;;;;;2209029;67;1204;-67
2022/08/06 02:02:45;;;;;;;;;;;;;;;;;;2208571;59;1480;-66
2022/08/06 02:05:19;;;;;;;;;;;;;;;;;;2208521;59;1422;-65
2022/08/06 02:07:54;;;;;;;;;;;;;;;;;;2208567;67;1310;-65
2022/08/06 02:10:27;;;;;;;;;;;;;;;;;;2208623;67;1927;-65
2022/08/06 02:13:01;;;;;;;;;;;;;;;;;;2208245;67;1333;-66
2022/08/06 02:15:38;;;;;;;;;;;;;;;;;;2208992;59;1283;-66
2022/08/06 02:18:12;;;;;;;;;;;;;;;;;;2208301;67;1116;-65
2022/08/06 02:20:47;;;;;;;;;;;;;;;;;;2207797;67;1168;-64
2022/08/06 02:23:24;;;;;;;;;;;;;;;;;;2208019;67;1275;-66
2022/08/06 02:25:57;;;;;;;;;;;;;;;;;;2208138;67;1187;-67
2022/08/06 02:28:32;;;;;;;;;;;;;;;;;;2207767;59;1286;-65
2022/08/06 02:31:08;;;;;;;;;;;;;;;;;;2208041;67;1925;-67
2022/08/06 02:33:41;;;;;;;;;;;;;;;;;;2208015;67;1154;-66
2022/08/06 02:36:16;;;;;;;;;;;;;;;;;;2207717;59;1396;-64
2022/08/06 02:38:52;;;;;;;;;;;;;;;;;;2208138;59;1568;-67
2022/08/06 02:41:27;;;;;;;;;;;;;;;;;;2208208;67;1270;-66
2022/08/06 02:44:04;;;;;;;;;;;;;;;;;;2207836;67;1314;-67
2022/08/06 02:46:43;;;;;;;;;;;;;;;;;;2208280;59;1119;-66
2022/08/06 02:49:19;;;;;;;;;;;;;;;;;;2207902;67;1212;-66
2022/08/06 02:51:55;;;;;;;;;;;;;;;;;;2207980;59;1995;-67
2022/08/06 02:54:33;;;;;;;;;;;;;;;;;;2207888;67;1143;-67
2022/08/06 02:57:09;;;;;;;;;;;;;;;;;;2207732;59;1263;-65
2022/08/06 02:59:46;;;;;;;;;;;;;;;;;;2207963;59;1068;-65
2022/08/06 03:02:24;;;;;;;;;;;;;;;;;;2208665;59;1393;-65
2022/08/06 03:04:58;;;;;;;;;;;;;;;;;;2207890;59;2415;-66
2022/08/06 03:07:33;;;;;;;;;;;;;;;;;;2208345;59;1460;-66
2022/08/06 03:10:07;;;;;;;;;;;;;;;;;;2208435;67;1101;-63
2022/08/06 03:12:41;;;;;;;;;;;;;;;;;;2208696;59;1936;-66
2022/08/06 03:15:15;;;;;;;;;;;;;;;;;;2207947;59;1342;-65
2022/08/06 03:17:55;;;;;;;;;;;;;;;;;;2207421;67;1201;-66
2022/08/06 03:20:29;;;;;;;;;;;;;;;;;;2207638;59;1191;-63
2022/08/06 03:23:04;;;;;;;;;;;;;;;;;;2208158;67;1253;-66
2022/08/06 03:25:39;;;;;;;;;;;;;;;;;;2208441;67;1173;-64
2022/08/06 03:28:13;;;;;;;;;;;;;;;;;;2208478;67;1205;-64
2022/08/06 03:30:47;;;;;;;;;;;;;;;;;;2207175;67;1187;-66
2022/08/06 03:33:23;;;;;;;;;;;;;;;;;;2207554;67;1929;-64
2022/08/06 03:35:58;;;;;;;;;;;;;;;;;;2207550;59;1358;-66
2022/08/06 03:38:32;;;;;;;;;;;;;;;;;;2208037;59;1594;-64
2022/08/06 03:41:07;;;;;;;;;;;;;;;;;;2207519;67;1108;-66
2022/08/06 03:43:40;;;;;;;;;;;;;;;;;;2207606;59;1154;-65
2022/08/06 03:46:15;;;;;;;;;;;;;;;;;;2207487;67;1184;-64
2022/08/06 03:48:52;;;;;;;;;;;;;;;;;;2207385;67;1100;-65
2022/08/06 03:51:28;;;;;;;;;;;;;;;;;;2207651;67;1991;-66
2022/08/06 04:10:02;;;;;;;;;;;;;;;;;;2207417;59;1240;-77
2022/08/06 04:12:35;;;;;;;;;;;;;;;;;;2211839;59;1935;-76
2022/08/06 04:15:09;;;;;;;;;;;;;;;;;;2210757;59;1448;-77
2022/08/06 04:28:26;;;;;;;;;;;;;;;;;;2295532;59;1620;-71
2022/08/06 04:31:00;;;;;;;;;;;;;;;;;;2206312;67;1108;-70
2022/08/06 04:33:36;;;;;;;;;;;;;;;;;;2208301;61;1990;-71
2022/08/06 04:36:10;;;;;;;;;;;;;;;;;;2207998;59;1364;-71
2022/08/06 04:38:44;;;;;;;;;;;;;;;;;;2206226;59;1670;-73
2022/08/06 05:53:27;;;;;;;;;;;;;;;;;;2276122;53;1905;-76
2022/08/06 05:56:04;;;;;;;;;;;;;;;;;;2215092;59;1206;-76
2022/08/06 05:58:40;;;;;;;;;;;;;;;;;;2215366;59;1089;-75
2022/08/06 06:01:15;;;;;;;;;;;;;;;;;;2215293;66;1227;-73
2022/08/06 06:03:49;;;;;;;;;;;;;;;;;;2212956;59;1298;-77
2022/08/06 06:06:23;;;;;;;;;;;;;;;;;;2212754;53;3628;-54
2022/08/06 06:08:59;;;;;;;;;;;;;;;;;;2209382;59;2631;-54
2022/08/06 06:11:33;;;;;;;;;;;;;;;;;;2210071;59;1980;-54
2022/08/06 06:14:07;;;;;;;;;;;;;;;;;;2210911;67;1149;-54
2022/08/06 06:16:51;;;;;;;;;;;;;;;;;;2207894;59;1838;-54
2022/08/06 06:30:08;;;;;;;;;;;;;;;;;;2297936;53;2205;-63
2022/08/06 06:32:44;;;;;;;;;;;;;;;;;;2216483;58;1975;-65
2022/08/06 06:35:23;;;;;;;;;;;;;;;;;;2216814;58;1181;-63
2022/08/06 06:38:00;;;;;;;;;;;;;;;;;;2216449;59;1670;-65
2022/08/06 06:40:39;;;;;;;;;;;;;;;;;;2213835;66;1076;-65
2022/08/06 06:43:15;;;;;;;;;;;;;;;;;;2213646;66;1266;-63
2022/08/06 06:45:56;;;;;;;;;;;;;;;;;;2213575;66;1174;-65
2022/08/06 06:48:33;;;;;;;;;;;;;;;;;;2213906;59;1208;-65
2022/08/06 06:51:09;;;;;;;;;;;;;;;;;;2212770;67;1249;-65
2022/08/06 06:53:44;;;;;;;;;;;;;;;;;;2213225;67;1933;-63
2022/08/06 06:56:19;;;;;;;;;;;;;;;;;;2212556;66;1178;-65
2022/08/06 06:58:55;;;;;;;;;;;;;;;;;;2213859;67;1235;-64
2022/08/06 07:01:32;;;;;;;;;;;;;;;;;;2213239;59;1616;-63
2022/08/06 07:04:08;;;;;;;;;;;;;;;;;;2213472;59;1389;-65
2022/08/06 07:06:44;;;;;;;;;;;;;;;;;;2212893;67;1225;-65
2022/08/06 07:09:18;;;;;;;;;;;;;;;;;;2213664;66;1208;-64
2022/08/06 07:11:53;;;;;;;;;;;;;;;;;;2213852;59;1925;-60
2022/08/06 07:14:26;;;;;;;;;;;;;;;;;;2213761;59;1436;-64
2022/08/06 07:17:03;;;;;;;;;;;;;;;;;;2213367;59;1334;-65
2022/08/06 07:19:36;;;;;;;;;;;;;;;;;;2213530;67;1211;-65
2022/08/06 07:22:11;;;;;;;;;;;;;;;;;;2213508;66;1202;-65
2022/08/06 07:24:45;;;;;;;;;;;;;;;;;;2212585;67;1213;-65
2022/08/06 07:27:18;;;;;;;;;;;;;;;;;;2212669;66;1075;-64
2022/08/06 07:29:52;;;;;;;;;;;;;;;;;;2213680;59;1231;-64
2022/08/06 07:32:28;;;;;;;;;;;;;;;;;;2213305;67;1933;-65
2022/08/06 07:35:01;;;;;;;;;;;;;;;;;;2213089;66;1112;-65
2022/08/06 07:37:37;;;;;;;;;;;;;;;;;;2212722;59;1455;-65
2022/08/06 07:40:12;;;;;;;;;;;;;;;;;;2212730;67;1131;-65
2022/08/06 07:42:48;;;;;;;;;;;;;;;;;;2213221;66;1192;-64
2022/08/06 07:45:21;;;;;;;;;;;;;;;;;;2213453;67;1090;-64
2022/08/06 07:47:58;;;;;;;;;;;;;;;;;;2212509;66;1120;-64
2022/08/06 07:50:32;;;;;;;;;;;;;;;;;;2213637;67;1187;-65
2022/08/06 07:53:05;;;;;;;;;;;;;;;;;;2213952;67;1943;-65
2022/08/06 07:55:39;;;;;;;;;;;;;;;;;;2213379;67;1191;-65
2022/08/06 07:58:12;;;;;;;;;;;;;;;;;;2213508;67;1101;-64
2022/08/06 08:00:47;;;;;;;;;;;;;;;;;;2214367;66;1197;-65
2022/08/06 08:06:25;;;;;;;;;;;;;;;;;;2213727;67;1169;-65
2022/08/06 08:08:59;;;;;;;;;;;;;;;;;;2214360;66;1230;-64
2022/08/06 08:11:34;;;;;;;;;;;;;;;;;;2214094;59;1258;-65
2022/08/06 08:14:07;;;;;;;;;;;;;;;;;;2213173;59;1937;-65
2022/08/06 08:16:41;;;;;;;;;;;;;;;;;;2213657;58;1363;-64
2022/08/06 08:19:30;;;;;;;;;;;;;;;;;;2213715;67;1214;-65
2022/08/06 08:22:06;;;;;;;;;;;;;;;;;;2213690;66;1225;-65
2022/08/06 08:24:40;;;;;;;;;;;;;;;;;;2213983;67;1189;-65
2022/08/06 08:27:14;;;;;;;;;;;;;;;;;;2213147;67;1287;-65
2022/08/06 08:29:47;;;;;;;;;;;;;;;;;;2214321;59;1208;-65
2022/08/06 08:32:20;;;;;;;;;;;;;;;;;;2212492;67;2003;-65
2022/08/06 08:34:56;;;;;;;;;;;;;;;;;;2213860;67;1284;-65
2022/08/06 08:37:29;;;;;;;;;;;;;;;;;;2213160;59;1475;-64
2022/08/06 08:40:03;;;;;;;;;;;;;;;;;;2213242;66;1261;-65
2022/08/06 08:42:38;;;;;;;;;;;;;;;;;;2213970;66;1202;-64
2022/08/06 08:45:12;;;;;;;;;;;;;;;;;;2213278;66;1179;-65
2022/08/06 08:47:47;;;;;;;;;;;;;;;;;;2212443;67;1192;-65
2022/08/06 08:50:25;;;;;;;;;;;;;;;;;;2213037;67;1176;-65
2022/08/06 08:53:00;;;;;;;;;;;;;;;;;;2213059;59;1990;-65
2022/08/06 08:55:33;;;;;;;;;;;;;;;;;;2213466;67;1130;-64
2022/08/06 08:58:07;;;;;;;;;;;;;;;;;;2214185;66;1549;-62
2022/08/06 09:00:40;;;;;;;;;;;;;;;;;;2213965;67;1262;-65
2022/08/06 09:03:13;;;;;;;;;;;;;;;;;;2212702;59;1580;-63
2022/08/06 09:05:49;;;;;;;;;;;;;;;;;;2213430;67;1226;-65
2022/08/06 09:08:22;;;;;;;;;;;;;;;;;;2213878;67;1261;-63
2022/08/06 09:10:55;;;;;;;;;;;;;;;;;;2213570;59;1250;-65
2022/08/06 09:13:29;;;;;;;;;;;;;;;;;;2213420;59;1937;-65
2022/08/06 09:16:03;;;;;;;;;;;;;;;;;;2213887;59;1326;-65
2022/08/06 09:18:36;;;;;;;;;;;;;;;;;;2213950;67;1205;-65
2022/08/06 09:21:12;;;;;;;;;;;;;;;;;;2213660;66;1784;-65
2022/08/06 09:23:45;;;;;;;;;;;;;;;;;;2214084;66;1742;-65
2022/08/06 09:26:18;;;;;;;;;;;;;;;;;;2213999;66;1266;-65
2022/08/06 09:28:51;;;;;;;;;;;;;;;;;;2213582;59;1538;-65
2022/08/06 09:31:24;;;;;;;;;;;;;;;;;;2213616;67;1191;-65
2022/08/06 09:33:59;;;;;;;;;;;;;;;;;;2213904;66;1931;-65
2022/08/06 09:36:43;;;;;;;;;;;;;;;;;;2214310;59;1397;-64
2022/08/06 09:39:16;;;;;;;;;;;;;;;;;;2214009;59;1753;-65
2022/08/06 09:41:51;;;;;;;;;;;;;;;;;;2214037;66;1194;-65
2022/08/06 09:44:24;;;;;;;;;;;;;;;;;;2213309;66;1273;-65
2022/08/06 09:46:57;;;;;;;;;;;;;;;;;;2213705;66;1179;-63
2022/08/06 09:49:31;;;;;;;;;;;;;;;;;;2212864;66;1215;-64
2022/08/06 09:52:17;;;;;;;;;;;;;;;;;;2213306;67;1108;-64
2022/08/06 09:54:50;;;;;;;;;;;;;;;;;;2213455;67;1928;-63
2022/08/06 09:57:25;;;;;;;;;;;;;;;;;;2213414;66;1217;-65
2022/08/06 09:59:58;;;;;;;;;;;;;;;;;;2213652;66;1277;-65
2022/08/06 10:02:35;;;;;;;;;;;;;;;;;;2212521;59;1530;-65
2022/08/06 10:05:10;;;;;;;;;;;;;;;;;;2213583;66;1186;-65
2022/08/06 10:07:46;;;;;;;;;;;;;;;;;;2212838;67;1839;-63
2022/08/06 10:10:20;;;;;;;;;;;;;;;;;;2213895;66;1209;-64
2022/08/06 10:13:12;;;;;;;;;;;;;;;;;;2213780;59;1990;-65
2022/08/06 10:15:48;;;;;;;;;;;;;;;;;;2212406;59;1408;-63
2022/08/06 10:18:39;;;;;;;;;;;;;;;;;;2213270;66;1232;-65
2022/08/06 10:21:13;;;;;;;;;;;;;;;;;;2212930;66;1097;-64
2022/08/06 10:23:51;;;;;;;;;;;;;;;;;;2213082;67;1262;-64
2022/08/06 10:26:27;;;;;;;;;;;;;;;;;;2212853;66;1122;-65
2022/08/06 10:29:03;;;;;;;;;;;;;;;;;;2213074;59;1285;-65
2022/08/06 10:31:37;;;;;;;;;;;;;;;;;;2212958;67;1123;-64
2022/08/06 10:34:12;;;;;;;;;;;;;;;;;;2213299;66;1945;-65
2022/08/06 10:36:49;;;;;;;;;;;;;;;;;;2212887;67;1938;-65
2022/08/06 10:39:29;;;;;;;;;;;;;;;;;;2212945;66;1687;-65
2022/08/06 10:42:04;;;;;;;;;;;;;;;;;;2214057;66;1234;-65
2022/08/06 10:44:38;;;;;;;;;;;;;;;;;;2213945;67;1194;-65
2022/08/06 10:47:12;;;;;;;;;;;;;;;;;;2213641;67;1165;-65
2022/08/06 10:49:46;;;;;;;;;;;;;;;;;;2213830;66;1244;-65
2022/08/06 10:52:19;;;;;;;;;;;;;;;;;;2213758;66;1202;-65
2022/08/06 10:54:56;;;;;;;;;;;;;;;;;;2213645;66;1980;-65
2022/08/06 10:57:29;;;;;;;;;;;;;;;;;;2214030;67;1136;-65
2022/08/06 11:00:03;;;;;;;;;;;;;;;;;;2213551;66;1227;-63
2022/08/06 11:02:43;;;;;;;;;;;;;;;;;;2213451;59;1570;-65
2022/08/06 11:05:18;;;;;;;;;;;;;;;;;;2213925;67;1119;-63
2022/08/06 11:08:09;;;;;;;;;;;;;;;;;;2214348;66;1281;-64
2022/08/06 11:11:09;;;;;;;;;;;;;;;;;;2214099;59;1271;-64
2022/08/06 11:14:02;;;;;;;;;;;;;;;;;;2209897;59;1980;-64
2022/08/06 11:16:35;;;;;;;;;;;;;;;;;;2213859;58;1346;-63
2022/08/06 11:19:10;;;;;;;;;;;;;;;;;;2213817;67;1208;-64
2022/08/06 11:21:44;;;;;;;;;;;;;;;;;;2213782;67;1239;-64
2022/08/06 11:24:18;;;;;;;;;;;;;;;;;;2213885;66;1128;-65
2022/08/06 11:26:51;;;;;;;;;;;;;;;;;;2213508;67;1998;-65
2022/08/06 11:29:27;;;;;;;;;;;;;;;;;;2213244;59;1786;-66
2022/08/06 11:32:00;;;;;;;;;;;;;;;;;;2213455;67;1213;-65
2022/08/06 11:34:43;;;;;;;;;;;;;;;;;;2213048;66;1916;-65
2022/08/06 11:37:36;;;;;;;;;;;;;;;;;;2213376;59;1837;-65
2022/08/06 11:40:10;;;;;;;;;;;;;;;;;;2213063;67;2456;-65
2022/08/06 11:42:44;;;;;;;;;;;;;;;;;;2214043;66;1246;-65
2022/08/06 11:45:21;;;;;;;;;;;;;;;;;;2213871;66;1219;-64
2022/08/06 11:48:05;;;;;;;;;;;;;;;;;;2213901;67;1244;-63
2022/08/06 11:50:39;;;;;;;;;;;;;;;;;;2213161;67;1254;-64
2022/08/06 11:53:12;;;;;;;;;;;;;;;;;;2213540;67;1177;-63
2022/08/06 11:56:00;;;;;;;;;;;;;;;;;;2213629;66;1927;-65
2022/08/06 11:58:33;;;;;;;;;;;;;;;;;;2213352;67;1870;-64
2022/08/06 12:01:09;;;;;;;;;;;;;;;;;;2213346;59;1216;-65
2022/08/06 12:03:43;;;;;;;;;;;;;;;;;;2213740;59;1842;-66
2022/08/06 12:06:23;;;;;;;;;;;;;;;;;;2213453;66;1257;-65
2022/08/06 12:09:09;;;;;;;;;;;;;;;;;;2213200;67;1245;-66
2022/08/06 12:11:42;;;;;;;;;;;;;;;;;;2212422;59;1299;-65
2022/08/06 12:14:33;;;;;;;;;;;;;;;;;;2213201;66;1988;-65
2022/08/06 12:17:14;;;;;;;;;;;;;;;;;;2211449;59;1502;-63
2022/08/06 12:19:49;;;;;;;;;;;;;;;;;;2212684;67;1185;-65
2022/08/06 12:22:23;;;;;;;;;;;;;;;;;;2213747;67;1216;-66
2022/08/06 12:24:59;;;;;;;;;;;;;;;;;;2213090;67;1081;-65
2022/08/06 12:27:33;;;;;;;;;;;;;;;;;;2213727;66;1180;-65
2022/08/06 12:30:07;;;;;;;;;;;;;;;;;;2212901;59;1248;-65
2022/08/06 12:32:43;;;;;;;;;;;;;;;;;;2212985;67;1115;-65
2022/08/06 12:35:16;;;;;;;;;;;;;;;;;;2213292;67;1979;-64
2022/08/06 12:37:49;;;;;;;;;;;;;;;;;;2213385;58;1744;-64
2022/08/06 12:40:32;;;;;;;;;;;;;;;;;;2214369;66;1184;-65
2022/08/06 12:43:12;;;;;;;;;;;;;;;;;;2214138;67;1250;-64
2022/08/06 12:45:46;;;;;;;;;;;;;;;;;;2213699;67;1311;-65
2022/08/06 12:48:22;;;;;;;;;;;;;;;;;;2213658;66;1227;-64
2022/08/06 12:51:03;;;;;;;;;;;;;;;;;;2213699;66;1305;-64
2022/08/06 12:53:40;;;;;;;;;;;;;;;;;;2213341;59;1810;-65
2022/08/06 12:56:14;;;;;;;;;;;;;;;;;;2214119;67;1094;-64
2022/08/06 12:58:48;;;;;;;;;;;;;;;;;;2213641;67;1233;-66
2022/08/06 13:01:23;;;;;;;;;;;;;;;;;;2212818;58;1480;-63
2022/08/06 13:04:02;;;;;;;;;;;;;;;;;;2213907;59;1275;-63
2022/08/06 13:06:36;;;;;;;;;;;;;;;;;;2213832;66;1198;-63
2022/08/06 13:09:09;;;;;;;;;;;;;;;;;;2213728;67;1204;-65
2022/08/06 13:11:42;;;;;;;;;;;;;;;;;;2213518;59;1250;-65
2022/08/06 13:14:16;;;;;;;;;;;;;;;;;;2213274;66;1991;-65
2022/08/06 13:16:50;;;;;;;;;;;;;;;;;;2212988;59;1416;-64
2022/08/06 13:19:26;;;;;;;;;;;;;;;;;;2213149;66;1195;-65
2022/08/06 13:22:00;;;;;;;;;;;;;;;;;;2213259;66;1128;-66
2022/08/06 13:24:33;;;;;;;;;;;;;;;;;;2213259;66;1108;-65
2022/08/06 13:27:06;;;;;;;;;;;;;;;;;;2213362;66;1204;-64
2022/08/06 13:29:40;;;;;;;;;;;;;;;;;;2213124;59;1195;-65
2022/08/06 13:32:13;;;;;;;;;;;;;;;;;;2214035;66;1181;-66
2022/08/06 13:34:52;;;;;;;;;;;;;;;;;;2213302;67;1992;-65
2022/08/06 13:37:43;;;;;;;;;;;;;;;;;;2213533;59;1676;-65
2022/08/06 13:40:17;;;;;;;;;;;;;;;;;;2213365;67;1270;-64
2022/08/06 13:42:50;;;;;;;;;;;;;;;;;;2213537;67;1305;-65
2022/08/06 13:45:24;;;;;;;;;;;;;;;;;;2213499;66;1288;-65
2022/08/06 13:48:03;;;;;;;;;;;;;;;;;;2212973;66;1112;-65
2022/08/06 13:50:41;;;;;;;;;;;;;;;;;;2213692;66;1143;-63
2022/08/06 13:53:15;;;;;;;;;;;;;;;;;;2213496;66;1166;-65
2022/08/06 13:55:48;;;;;;;;;;;;;;;;;;2213177;67;1986;-65
2022/08/06 13:58:21;;;;;;;;;;;;;;;;;;2214187;66;1163;-65
2022/08/06 14:00:54;;;;;;;;;;;;;;;;;;2213607;66;1253;-65
2022/08/06 14:03:28;;;;;;;;;;;;;;;;;;2213430;59;1485;-65
2022/08/06 14:06:04;;;;;;;;;;;;;;;;;;2213536;66;1308;-65
2022/08/06 14:08:37;;;;;;;;;;;;;;;;;;2213178;66;1248;-65
2022/08/06 14:11:10;;;;;;;;;;;;;;;;;;2213546;59;1258;-65
2022/08/06 14:13:44;;;;;;;;;;;;;;;;;;2213500;66;1173;-65
2022/08/06 14:16:17;;;;;;;;;;;;;;;;;;2213075;67;1985;-65
2022/08/06 14:18:50;;;;;;;;;;;;;;;;;;2214340;66;1290;-66
2022/08/06 14:21:26;;;;;;;;;;;;;;;;;;2213821;67;1253;-65
2022/08/06 14:23:59;;;;;;;;;;;;;;;;;;2214021;66;1206;-65
2022/08/06 14:26:32;;;;;;;;;;;;;;;;;;2213938;67;1133;-65
2022/08/06 14:29:05;;;;;;;;;;;;;;;;;;2213653;67;1224;-65
2022/08/06 14:31:38;;;;;;;;;;;;;;;;;;2213353;59;1238;-61
2022/08/06 14:34:11;;;;;;;;;;;;;;;;;;2214165;66;1108;-64
2022/08/06 14:36:47;;;;;;;;;;;;;;;;;;2213966;59;1983;-64
2022/08/06 14:39:20;;;;;;;;;;;;;;;;;;2213843;59;1612;-65
2022/08/06 14:44:59;;;;;;;;;;;;;;;;;;2213853;67;1069;-65
2022/08/06 14:47:32;;;;;;;;;;;;;;;;;;2213338;67;1115;-65
2022/08/06 14:50:07;;;;;;;;;;;;;;;;;;2213295;66;1230;-65
2022/08/06 14:52:43;;;;;;;;;;;;;;;;;;2212729;67;1117;-65
2022/08/06 14:55:16;;;;;;;;;;;;;;;;;;2213222;66;1931;-65
2022/08/06 14:57:49;;;;;;;;;;;;;;;;;;2212748;67;1313;-65
2022/08/06 15:00:23;;;;;;;;;;;;;;;;;;2212282;67;5954;-64
2022/08/06 15:02:56;;;;;;;;;;;;;;;;;;2212402;59;1525;-65
2022/08/06 15:05:29;;;;;;;;;;;;;;;;;;2212994;66;1089;-65
2022/08/06 15:08:05;;;;;;;;;;;;;;;;;;2213371;67;1228;-64
2022/08/06 15:10:38;;;;;;;;;;;;;;;;;;2213886;59;1329;-64
2022/08/06 15:13:11;;;;;;;;;;;;;;;;;;2213964;66;1203;-65
2022/08/06 15:15:44;;;;;;;;;;;;;;;;;;2214091;59;1935;-65
2022/08/06 15:18:18;;;;;;;;;;;;;;;;;;2213825;67;1264;-65
2022/08/06 15:20:51;;;;;;;;;;;;;;;;;;2214215;67;1289;-65
2022/08/06 15:23:28;;;;;;;;;;;;;;;;;;2212476;67;1228;-64
2022/08/06 15:26:01;;;;;;;;;;;;;;;;;;2213089;66;1213;-65
2022/08/06 15:28:34;;;;;;;;;;;;;;;;;;2212465;66;1190;-61
2022/08/06 15:31:08;;;;;;;;;;;;;;;;;;2212647;59;1111;-63
2022/08/06 15:33:41;;;;;;;;;;;;;;;;;;2212337;67;1100;-61
2022/08/06 15:36:14;;;;;;;;;;;;;;;;;;2212906;59;1992;-63
2022/08/06 15:38:51;;;;;;;;;;;;;;;;;;2212560;59;1580;-62
2022/08/06 15:41:27;;;;;;;;;;;;;;;;;;2212339;67;1217;-63
2022/08/06 15:44:00;;;;;;;;;;;;;;;;;;2212701;59;1239;-62
2022/08/06 15:46:33;;;;;;;;;;;;;;;;;;2212393;67;1143;-60
2022/08/06 15:49:06;;;;;;;;;;;;;;;;;;2212327;67;1261;-62
2022/08/06 15:51:39;;;;;;;;;;;;;;;;;;2212932;66;1129;-63
2022/08/06 15:54:15;;;;;;;;;;;;;;;;;;2212768;66;1271;-63
2022/08/06 15:56:48;;;;;;;;;;;;;;;;;;2212032;67;1947;-62
2022/08/06 15:59:22;;;;;;;;;;;;;;;;;;2212637;66;1247;-61
2022/08/06 16:01:55;;;;;;;;;;;;;;;;;;2212687;59;1522;-63
2022/08/06 16:04:28;;;;;;;;;;;;;;;;;;2212565;59;1119;-62
2022/08/06 16:07:01;;;;;;;;;;;;;;;;;;2212701;67;1230;-60
2022/08/06 16:09:37;;;;;;;;;;;;;;;;;;2212359;67;1207;-60
2022/08/06 16:12:10;;;;;;;;;;;;;;;;;;2212843;59;1282;-63
2022/08/06 16:14:44;;;;;;;;;;;;;;;;;;2213040;66;1156;-61
2022/08/06 16:17:17;;;;;;;;;;;;;;;;;;2213792;59;1924;-62
2022/08/06 16:19:50;;;;;;;;;;;;;;;;;;2213285;67;1291;-62
2022/08/06 16:22:23;;;;;;;;;;;;;;;;;;2213921;66;1257;-62
2022/08/06 16:24:59;;;;;;;;;;;;;;;;;;2213504;67;1221;-63
2022/08/06 16:27:32;;;;;;;;;;;;;;;;;;2214423;67;1226;-62
2022/08/06 16:30:06;;;;;;;;;;;;;;;;;;2213318;59;1198;-61
2022/08/06 16:32:39;;;;;;;;;;;;;;;;;;2214038;67;1041;-63
2022/08/06 16:35:12;;;;;;;;;;;;;;;;;;2214209;66;1980;-62
2022/08/06 16:37:46;;;;;;;;;;;;;;;;;;2213474;59;1619;-62
2022/08/06 16:40:23;;;;;;;;;;;;;;;;;;2214335;66;1235;-61
2022/08/06 16:42:56;;;;;;;;;;;;;;;;;;2214218;66;1274;-63
2022/08/06 16:45:30;;;;;;;;;;;;;;;;;;2214682;67;1121;-62
2022/08/06 16:48:03;;;;;;;;;;;;;;;;;;2214197;66;1255;-63
2022/08/06 16:50:36;;;;;;;;;;;;;;;;;;2214342;66;1281;-62
2022/08/06 16:53:10;;;;;;;;;;;;;;;;;;2214101;66;1244;-62
2022/08/06 16:55:46;;;;;;;;;;;;;;;;;;2214279;66;1927;-62
2022/08/06 16:58:19;;;;;;;;;;;;;;;;;;2214246;66;1221;-62
2022/08/06 17:00:52;;;;;;;;;;;;;;;;;;2214456;67;1266;-62
2022/08/06 17:03:25;;;;;;;;;;;;;;;;;;2214212;59;1519;-58
2022/08/06 17:05:59;;;;;;;;;;;;;;;;;;2214538;66;1236;-60
2022/08/06 17:08:32;;;;;;;;;;;;;;;;;;2214299;66;1267;-62
2022/08/06 17:11:08;;;;;;;;;;;;;;;;;;2214087;59;1249;-62
2022/08/06 17:13:41;;;;;;;;;;;;;;;;;;2214117;67;1076;-62
2022/08/06 17:16:14;;;;;;;;;;;;;;;;;;2213977;59;1925;-62
2022/08/06 17:18:48;;;;;;;;;;;;;;;;;;2214006;67;1259;-62
2022/08/06 17:21:21;;;;;;;;;;;;;;;;;;2213938;66;1222;-60
2022/08/06 17:23:54;;;;;;;;;;;;;;;;;;2214223;66;1225;-61
2022/08/06 17:26:30;;;;;;;;;;;;;;;;;;2214037;66;1151;-63
2022/08/06 17:29:03;;;;;;;;;;;;;;;;;;2213791;66;1608;-61
2022/08/06 17:31:36;;;;;;;;;;;;;;;;;;2213499;59;1485;-61
2022/08/06 17:34:10;;;;;;;;;;;;;;;;;;2213499;66;1277;-61
2022/08/06 17:36:43;;;;;;;;;;;;;;;;;;2213765;67;1932;-62
2022/08/06 17:39:16;;;;;;;;;;;;;;;;;;2213462;59;1620;-61
2022/08/06 17:41:53;;;;;;;;;;;;;;;;;;2213791;67;1108;-63
2022/08/06 17:44:26;;;;;;;;;;;;;;;;;;2213588;66;1214;-62
2022/08/06 17:46:59;;;;;;;;;;;;;;;;;;2213825;66;1238;-60
2022/08/06 17:49:36;;;;;;;;;;;;;;;;;;2213318;67;1203;-62
2022/08/06 17:52:09;;;;;;;;;;;;;;;;;;2213686;66;1243;-62
2022/08/06 17:54:42;;;;;;;;;;;;;;;;;;2213524;66;1110;-61
2022/08/06 17:57:18;;;;;;;;;;;;;;;;;;2213295;66;1944;-62
2022/08/06 17:59:52;;;;;;;;;;;;;;;;;;2213762;67;1250;-61
2022/08/06 18:02:25;;;;;;;;;;;;;;;;;;2213211;59;1391;-61
2022/08/06 18:04:58;;;;;;;;;;;;;;;;;;2213352;59;1131;-62
2022/08/06 18:07:31;;;;;;;;;;;;;;;;;;2213266;67;1150;-62
2022/08/06 18:12:57;;;;;;;;;;;;;;;;;;2213314;67;1301;-62
2022/08/06 18:15:30;;;;;;;;;;;;;;;;;;2213314;59;1365;-63
2022/08/06 18:18:03;;;;;;;;;;;;;;;;;;2213384;66;1935;-62
2022/08/06 18:20:37;;;;;;;;;;;;;;;;;;2213255;66;1675;-62
2022/08/06 18:23:10;;;;;;;;;;;;;;;;;;2213627;66;1229;-60
2022/08/06 18:25:43;;;;;;;;;;;;;;;;;;2213083;66;1123;-62
2022/08/06 18:28:19;;;;;;;;;;;;;;;;;;2213512;66;1271;-62
2022/08/06 18:39:08;;;;;;;;;;;;;;;;;;2389742;53;1874;-54
2022/08/06 18:41:42;;;;;;;;;;;;;;;;;;2214924;59;2108;-56
2022/08/06 18:44:18;;;;;;;;;;;;;;;;;;2214443;59;1218;-54
2022/08/06 18:46:52;;;;;;;;;;;;;;;;;;2214798;67;1285;-54
2022/08/06 18:49:25;;;;;;;;;;;;;;;;;;2213489;59;1295;-54
2022/08/06 18:51:58;;;;;;;;;;;;;;;;;;2211051;67;1294;-54
2022/08/06 18:54:31;;;;;;;;;;;;;;;;;;2210677;67;1191;-54
2022/08/06 18:57:05;;;;;;;;;;;;;;;;;;2210688;59;1929;-54
2022/08/06 18:59:41;;;;;;;;;;;;;;;;;;2210726;67;1143;-54
2022/08/06 19:02:14;;;;;;;;;;;;;;;;;;2210691;59;1386;-55
2022/08/06 19:04:48;;;;;;;;;;;;;;;;;;2210901;67;1251;-54
2022/08/06 19:07:21;;;;;;;;;;;;;;;;;;2210085;67;1365;-54
2022/08/06 19:09:55;;;;;;;;;;;;;;;;;;2210790;67;1275;-54
2022/08/06 19:12:29;;;;;;;;;;;;;;;;;;2211258;59;1322;-54
2022/08/06 19:15:06;;;;;;;;;;;;;;;;;;2210400;59;1364;-54
2022/08/06 19:17:40;;;;;;;;;;;;;;;;;;2210582;67;2059;-54
2022/08/06 19:20:15;;;;;;;;;;;;;;;;;;2209879;67;1264;-54
2022/08/06 19:22:48;;;;;;;;;;;;;;;;;;2209920;67;1093;-54
2022/08/06 19:25:21;;;;;;;;;;;;;;;;;;2210246;67;1210;-59
2022/08/06 19:27:55;;;;;;;;;;;;;;;;;;2209728;67;1270;-54
2022/08/06 19:30:31;;;;;;;;;;;;;;;;;;2209245;67;1257;-57
2022/08/06 19:33:06;;;;;;;;;;;;;;;;;;2209853;67;1215;-54
2022/08/06 19:35:39;;;;;;;;;;;;;;;;;;2209844;59;1107;-54
2022/08/06 19:38:12;;;;;;;;;;;;;;;;;;2209891;67;1965;-54
2022/08/06 19:40:48;;;;;;;;;;;;;;;;;;2209507;59;1491;-54
2022/08/06 19:43:22;;;;;;;;;;;;;;;;;;2209157;67;1248;-54
2022/08/06 19:45:58;;;;;;;;;;;;;;;;;;2209650;67;1273;-54
2022/08/06 19:48:32;;;;;;;;;;;;;;;;;;2209976;67;1141;-54
2022/08/06 19:51:05;;;;;;;;;;;;;;;;;;2209785;67;1262;-54
2022/08/06 19:53:38;;;;;;;;;;;;;;;;;;2210493;67;1308;-54
2022/08/06 19:56:11;;;;;;;;;;;;;;;;;;2210444;67;1183;-56
2022/08/06 19:58:44;;;;;;;;;;;;;;;;;;2210535;67;1937;-57
2022/08/06 20:01:20;;;;;;;;;;;;;;;;;;2210218;59;1477;-54
2022/08/06 20:03:54;;;;;;;;;;;;;;;;;;2210111;59;1244;-54